createdAt,value
2019-01-25T00:01:16.963Z,26.40
2019-01-25T00:03:46.088Z,26.50
2019-01-25T00:06:15.315Z,27.63
2019-01-25T00:08:44.409Z,29.50
2019-01-25T00:11:13.643Z,22.03
2019-01-25T00:13:42.809Z,29.37
2019-01-25T00:16:11.989Z,27.90
2019-01-25T00:18:41.266Z,26.87
2019-01-25T00:21:10.418Z,28.90
2019-01-25T00:23:39.708Z,27.67
2019-01-25T00:26:08.929Z,28.43
2019-01-25T00:28:38.158Z,27.27
2019-01-25T00:31:07.328Z,29.30
2019-01-25T00:33:36.487Z,27.77
2019-01-25T00:36:05.642Z,27.83
2019-01-25T00:38:34.786Z,29.33
2019-01-25T00:41:03.963Z,30.00
2019-01-25T00:43:33.110Z,29.60
2019-01-25T00:46:02.322Z,29.67
2019-01-25T00:48:31.406Z,28.67
2019-01-25T00:51:00.855Z,27.13
2019-01-25T00:53:30.015Z,27.20
2019-01-25T00:55:59.201Z,28.93
2019-01-25T00:58:28.364Z,28.90
2019-01-25T01:00:57.470Z,29.93
2019-01-25T01:03:26.697Z,29.23
2019-01-25T01:05:55.851Z,28.47
2019-01-25T01:08:25.055Z,29.80
2019-01-25T01:10:54.166Z,29.83
2019-01-25T01:13:23.322Z,30.97
2019-01-25T01:15:52.586Z,32.30
2019-01-25T01:18:21.650Z,33.43
2019-01-25T01:20:50.887Z,36.50
2019-01-25T01:23:19.969Z,35.27
2019-01-25T01:25:49.042Z,34.97
2019-01-25T01:28:18.196Z,38.73
2019-01-25T01:30:47.354Z,37.33
2019-01-25T01:33:16.516Z,37.20
2019-01-25T01:35:45.680Z,35.43
2019-01-25T01:38:14.850Z,35.10
2019-01-25T01:40:44.158Z,35.63
2019-01-25T01:43:13.388Z,35.80
2019-01-25T01:45:42.566Z,36.70
2019-01-25T01:48:11.755Z,37.10
2019-01-25T01:50:40.940Z,34.93
2019-01-25T01:53:10.110Z,37.80
2019-01-25T01:55:39.399Z,38.23
2019-01-25T01:58:08.493Z,37.03
2019-01-25T02:00:37.583Z,38.03
2019-01-25T02:03:06.712Z,37.17
2019-01-25T02:05:35.850Z,38.00
2019-01-25T02:08:05.143Z,38.03
2019-01-25T02:10:34.429Z,38.17
2019-01-25T02:13:03.607Z,38.23
2019-01-25T02:15:32.765Z,39.17
2019-01-25T02:18:01.822Z,37.83
2019-01-25T02:20:31.513Z,38.47
2019-01-25T02:23:00.711Z,37.97
2019-01-25T02:25:29.861Z,38.47
2019-01-25T02:27:59.038Z,39.33
2019-01-25T02:30:28.511Z,37.80
2019-01-25T02:32:57.613Z,38.00
2019-01-25T02:35:26.785Z,39.73
2019-01-25T02:37:56.026Z,39.90
2019-01-25T02:40:27.922Z,38.27
2019-01-25T02:42:57.086Z,38.63
2019-01-25T02:45:26.227Z,38.37
2019-01-25T02:47:55.284Z,37.47
2019-01-25T02:50:24.462Z,33.43
2019-01-25T02:52:53.606Z,36.83
2019-01-25T02:55:22.791Z,36.13
2019-01-25T02:57:51.941Z,36.67
2019-01-25T03:00:22.894Z,37.23
2019-01-25T03:02:52.169Z,35.90
2019-01-25T03:05:21.596Z,39.00
2019-01-25T03:07:50.901Z,38.30
2019-01-25T03:10:28.194Z,38.67
2019-01-25T03:12:51.762Z,36.13
2019-01-25T03:15:22.990Z,36.73
2019-01-25T03:17:52.257Z,37.63
2019-01-25T03:20:21.516Z,36.93
2019-01-25T03:22:50.891Z,38.60
2019-01-25T03:25:26.972Z,37.50
2019-01-25T03:27:56.168Z,35.97
2019-01-25T03:30:26.197Z,36.40
2019-01-25T03:32:55.402Z,33.27
2019-01-25T03:35:25.445Z,37.13
2019-01-25T03:37:54.798Z,35.50
2019-01-25T03:40:25.720Z,37.77
2019-01-25T03:42:57.249Z,37.63
2019-01-25T03:45:26.622Z,36.33
2019-01-25T03:47:55.716Z,38.00
2019-01-25T03:50:27.739Z,37.03
2019-01-25T03:52:56.956Z,36.43
2019-01-25T03:55:26.138Z,38.00
2019-01-25T03:57:55.208Z,35.93
2019-01-25T04:00:26.172Z,35.70
2019-01-25T04:02:55.332Z,37.00
2019-01-25T04:05:24.449Z,36.47
2019-01-25T04:07:53.547Z,36.83
2019-01-25T04:10:24.319Z,37.27
2019-01-25T04:12:53.487Z,36.50
2019-01-25T04:15:24.553Z,38.93
2019-01-25T04:17:53.722Z,35.87
2019-01-25T04:20:22.939Z,38.43
2019-01-25T04:22:52.102Z,38.83
2019-01-25T04:25:22.157Z,40.70
2019-01-25T04:27:51.337Z,39.73
2019-01-25T04:30:28.206Z,38.70
2019-01-25T04:32:57.301Z,42.00
2019-01-25T04:35:26.443Z,41.33
2019-01-25T04:37:55.647Z,39.33
2019-01-25T04:40:24.786Z,38.77
2019-01-25T04:42:53.915Z,40.40
2019-01-25T04:45:23.056Z,38.27
2019-01-25T04:47:52.243Z,38.33
2019-01-25T04:50:22.791Z,40.03
2019-01-25T04:52:51.925Z,38.47
2019-01-25T04:55:25.708Z,39.93
2019-01-25T04:57:54.839Z,36.93
2019-01-25T05:00:24.074Z,39.93
2019-01-25T05:02:55.330Z,38.70
2019-01-25T05:05:24.466Z,38.57
2019-01-25T05:08:01.824Z,40.03
2019-01-25T05:10:30.865Z,38.23
2019-01-25T05:13:00.034Z,40.10
2019-01-25T05:15:29.234Z,40.90
2019-01-25T05:17:58.512Z,40.63
2019-01-25T05:20:27.653Z,38.30
2019-01-25T05:22:58.902Z,38.13
2019-01-25T05:25:28.546Z,34.33
2019-01-25T05:27:57.652Z,36.60
2019-01-25T05:30:26.883Z,36.63
2019-01-25T05:32:55.935Z,35.83
2019-01-25T05:35:24.780Z,37.20
2019-01-25T05:37:53.816Z,37.40
2019-01-25T05:40:25.630Z,37.60
2019-01-25T05:42:54.643Z,36.03
2019-01-25T05:45:23.657Z,35.43
2019-01-25T05:47:52.780Z,34.80
2019-01-25T05:50:21.848Z,34.70
2019-01-25T05:52:50.834Z,36.43
2019-01-25T05:55:21.024Z,36.87
2019-01-25T05:57:50.048Z,34.40
2019-01-25T06:00:33.951Z,34.47
2019-01-25T06:03:10.933Z,34.37
2019-01-25T06:05:39.979Z,32.90
2019-01-25T06:08:43.646Z,34.17
2019-01-25T06:11:13.793Z,33.20
2019-01-25T06:13:44.000Z,34.07
2019-01-25T06:16:13.037Z,31.10
2019-01-25T06:18:42.129Z,31.87
2019-01-25T06:21:11.079Z,33.57
2019-01-25T06:23:40.122Z,34.53
2019-01-25T06:26:10.442Z,32.87
2019-01-25T06:28:39.419Z,32.27
2019-01-25T06:31:08.438Z,33.10
2019-01-25T06:33:37.611Z,35.07
2019-01-25T06:36:07.794Z,30.37
2019-01-25T06:38:37.902Z,34.47
2019-01-25T06:41:07.547Z,33.93
2019-01-25T06:43:36.568Z,33.10
2019-01-25T06:46:05.586Z,34.07
2019-01-25T06:48:34.655Z,32.33
2019-01-25T06:51:03.680Z,32.90
2019-01-25T06:53:32.788Z,33.30
2019-01-25T06:56:01.844Z,31.87
2019-01-25T06:58:48.732Z,31.23
2019-01-25T07:01:34.789Z,27.67
2019-01-25T07:04:05.259Z,31.43
2019-01-25T07:06:34.298Z,31.33
2019-01-25T07:09:03.364Z,30.93
2019-01-25T07:11:32.378Z,31.63
2019-01-25T07:14:01.458Z,32.70
2019-01-25T07:16:30.483Z,31.73
2019-01-25T07:18:59.452Z,31.43
2019-01-25T07:21:28.448Z,30.73
2019-01-25T07:23:57.479Z,30.83
2019-01-25T07:26:26.403Z,30.47
2019-01-25T07:28:55.450Z,29.80
2019-01-25T07:31:24.417Z,28.20
2019-01-25T07:33:53.492Z,28.10
2019-01-25T07:36:22.613Z,29.10
2019-01-25T07:38:51.704Z,28.33
2019-01-25T07:41:20.688Z,27.80
2019-01-25T07:43:49.726Z,28.40
2019-01-25T07:46:18.803Z,29.33
2019-01-25T07:48:47.811Z,31.77
2019-01-25T07:51:16.835Z,30.27
2019-01-25T07:53:45.886Z,30.60
2019-01-25T07:56:14.964Z,28.43
2019-01-25T07:58:43.892Z,30.53
2019-01-25T08:01:12.820Z,29.07
2019-01-25T08:03:42.537Z,30.77
2019-01-25T08:06:11.577Z,27.93
2019-01-25T08:08:40.562Z,31.07
2019-01-25T08:11:09.665Z,28.97
2019-01-25T08:13:38.769Z,29.70
2019-01-25T08:16:07.843Z,29.07
2019-01-25T08:18:36.794Z,33.20
2019-01-25T08:21:05.766Z,31.73
2019-01-25T08:23:34.779Z,28.93
2019-01-25T08:26:03.931Z,29.70
2019-01-25T08:28:32.948Z,31.30
2019-01-25T08:31:01.995Z,32.67
2019-01-25T08:33:31.118Z,31.03
2019-01-25T08:36:00.155Z,31.43
2019-01-25T08:38:29.150Z,32.47
2019-01-25T08:40:58.215Z,31.77
2019-01-25T08:43:27.230Z,31.67
2019-01-25T08:45:56.187Z,32.67
2019-01-25T08:48:25.217Z,32.10
2019-01-25T08:50:54.276Z,32.30
2019-01-25T08:53:23.261Z,33.80
2019-01-25T08:55:52.201Z,31.70
2019-01-25T08:58:21.180Z,32.33
2019-01-25T09:00:51.801Z,32.23
2019-01-25T09:03:20.897Z,31.10
2019-01-25T09:05:49.919Z,27.63
2019-01-25T09:08:18.917Z,29.23
2019-01-25T09:10:48.007Z,31.43
2019-01-25T09:13:17.032Z,29.90
2019-01-25T09:15:45.931Z,30.50
2019-01-25T09:18:14.952Z,32.53
2019-01-25T09:20:44.106Z,32.40
2019-01-25T09:23:13.032Z,32.80
2019-01-25T09:25:42.088Z,32.93
2019-01-25T09:28:11.129Z,34.87
2019-01-25T09:30:40.124Z,36.37
2019-01-25T09:33:09.069Z,34.67
2019-01-25T09:35:38.091Z,34.63
2019-01-25T09:38:07.142Z,33.60
2019-01-25T09:40:36.250Z,34.83
2019-01-25T09:43:05.262Z,35.50
2019-01-25T09:45:34.213Z,39.13
2019-01-25T09:48:03.128Z,37.40
2019-01-25T09:50:32.188Z,38.97
2019-01-25T09:53:01.237Z,38.73
2019-01-25T09:55:30.182Z,40.97
2019-01-25T09:58:01.527Z,40.17
2019-01-25T10:00:33.832Z,41.80
2019-01-25T10:03:02.813Z,41.20
2019-01-25T10:05:31.873Z,42.93
2019-01-25T10:08:00.896Z,45.67
2019-01-25T10:10:29.928Z,42.00
2019-01-25T10:12:59.040Z,42.90
2019-01-25T10:15:28.245Z,41.17
2019-01-25T10:17:57.256Z,45.10
2019-01-25T10:20:26.364Z,44.00
2019-01-25T10:22:55.390Z,46.43
2019-01-25T10:25:24.319Z,47.37
2019-01-25T10:27:53.375Z,45.40
2019-01-25T10:30:25.057Z,47.27
2019-01-25T10:32:54.130Z,45.30
2019-01-25T10:35:23.034Z,49.17
2019-01-25T10:37:52.089Z,51.60
2019-01-25T10:40:21.111Z,50.17
2019-01-25T10:42:53.508Z,49.70
2019-01-25T10:45:29.612Z,52.73
2019-01-25T10:47:58.681Z,50.60
2019-01-25T10:50:27.714Z,50.50
2019-01-25T10:52:56.745Z,48.50
2019-01-25T10:55:25.805Z,46.50
2019-01-25T10:57:54.944Z,46.30
2019-01-25T11:00:23.963Z,45.47
2019-01-25T11:02:57.864Z,44.63
2019-01-25T11:05:24.508Z,46.43
2019-01-25T11:07:53.575Z,46.93
2019-01-25T11:10:22.520Z,45.73
2019-01-25T11:12:51.585Z,45.37
2019-01-25T11:15:21.801Z,47.37
2019-01-25T11:17:50.878Z,49.03
2019-01-25T11:20:21.342Z,50.00
2019-01-25T11:22:50.427Z,48.97
2019-01-25T11:25:25.482Z,50.63
2019-01-25T11:27:54.565Z,48.50
2019-01-25T11:30:23.615Z,46.40
2019-01-25T11:32:52.662Z,48.37
2019-01-25T11:35:22.655Z,37.10
2019-01-25T11:37:52.034Z,46.77
2019-01-25T11:40:27.354Z,43.23
2019-01-25T11:42:56.773Z,43.23
2019-01-25T11:45:26.086Z,42.03
2019-01-25T11:47:55.646Z,41.70
2019-01-25T11:50:25.085Z,40.40
2019-01-25T11:52:55.210Z,40.83
2019-01-25T11:55:26.045Z,38.73
2019-01-25T11:57:58.461Z,36.70
2019-01-25T12:05:46.242Z,37.10
2019-01-25T12:08:17.401Z,37.27
2019-01-25T12:10:46.684Z,37.00
2019-01-25T12:13:16.517Z,37.27
2019-01-25T12:15:45.861Z,35.90
2019-01-25T12:18:15.230Z,36.53
2019-01-25T12:20:44.435Z,37.90
2019-01-25T12:23:36.753Z,38.30
2019-01-25T12:26:02.265Z,35.43
2019-01-25T12:28:31.393Z,38.73
2019-01-25T12:31:22.900Z,37.90
2019-01-25T12:33:47.316Z,37.63
2019-01-25T12:36:16.479Z,37.50
2019-01-25T12:38:49.336Z,38.43
2019-01-25T12:41:19.681Z,37.77
2019-01-25T12:43:54.348Z,35.27
2019-01-25T12:46:23.740Z,39.00
2019-01-25T12:49:01.670Z,37.30
2019-01-25T12:51:48.604Z,33.80
2019-01-25T12:54:18.980Z,35.53
2019-01-25T12:56:48.773Z,36.87
2019-01-25T12:59:18.087Z,34.00
2019-01-25T13:01:47.427Z,33.63
2019-01-25T13:04:19.012Z,33.70
2019-01-25T13:06:48.673Z,32.67
2019-01-25T13:09:18.304Z,32.80
2019-01-25T13:11:48.440Z,31.53
2019-01-25T13:14:25.080Z,31.77
2019-01-25T13:16:54.580Z,30.33
2019-01-25T13:19:43.891Z,32.13
2019-01-25T13:22:13.600Z,30.23
2019-01-25T13:24:43.585Z,28.87
2019-01-25T13:27:21.335Z,29.10
2019-01-25T13:30:04.744Z,30.27
2019-01-25T13:32:34.768Z,30.83
2019-01-25T13:35:05.917Z,29.63
2019-01-25T13:37:39.680Z,28.30
2019-01-25T13:40:12.770Z,30.40
2019-01-25T13:42:47.651Z,28.33
2019-01-25T13:45:42.567Z,30.47
2019-01-25T13:48:12.086Z,27.47
2019-01-25T13:50:41.913Z,28.23
2019-01-25T13:53:11.388Z,28.77
2019-01-25T13:55:40.852Z,28.70
2019-01-25T13:58:10.563Z,27.97
2019-01-25T14:00:40.820Z,28.67
2019-01-25T14:03:12.151Z,27.80
2019-01-25T14:05:41.355Z,28.30
2019-01-25T14:08:10.760Z,26.87
2019-01-25T14:10:39.949Z,27.03
2019-01-25T14:13:09.358Z,26.23
2019-01-25T14:15:42.918Z,24.53
2019-01-25T14:18:12.409Z,25.80
2019-01-25T14:20:42.381Z,24.50
2019-01-25T14:23:12.777Z,25.03
2019-01-25T14:25:42.587Z,24.33
2019-01-25T14:28:19.488Z,20.93
2019-01-25T14:30:58.113Z,23.70
2019-01-25T14:33:27.489Z,21.73
2019-01-25T14:35:56.643Z,23.43
2019-01-25T14:38:28.627Z,21.87
2019-01-25T14:40:57.789Z,21.97
2019-01-25T14:43:27.206Z,20.83
2019-01-25T14:45:56.741Z,22.67
2019-01-25T14:48:27.264Z,19.67
2019-01-25T14:50:56.540Z,22.43
2019-01-25T14:53:25.684Z,20.90
2019-01-25T14:55:54.848Z,20.80
2019-01-25T14:58:24.028Z,21.10
2019-01-25T15:00:53.119Z,18.70
2019-01-25T15:03:22.337Z,23.03
2019-01-25T15:05:52.483Z,21.83
2019-01-25T15:08:22.586Z,21.37
2019-01-25T15:10:51.857Z,21.80
2019-01-25T15:13:21.219Z,22.17
2019-01-25T15:15:50.693Z,22.10
2019-01-25T15:18:52.571Z,20.93
2019-01-25T15:21:17.462Z,20.03
2019-01-25T15:23:56.146Z,18.20
2019-01-25T15:26:48.450Z,19.83
2019-01-25T15:30:10.920Z,20.47
2019-01-25T15:32:40.181Z,20.63
2019-01-25T15:35:10.557Z,20.93
2019-01-25T15:37:39.774Z,18.60
2019-01-25T15:40:10.091Z,21.50
2019-01-25T15:42:39.322Z,16.30
2019-01-25T15:45:10.433Z,20.37
2019-01-25T15:47:42.360Z,20.60
2019-01-25T15:50:19.847Z,20.73
2019-01-25T15:52:50.127Z,20.73
2019-01-25T15:55:19.909Z,20.53
2019-01-25T15:57:49.166Z,20.43
2019-01-25T16:00:21.132Z,21.90
2019-01-25T16:02:50.275Z,20.67
2019-01-25T16:05:20.551Z,22.33
2019-01-25T16:07:50.020Z,23.90
2019-01-25T16:10:20.418Z,21.30
2019-01-25T16:12:49.787Z,21.20
2019-01-25T16:15:25.859Z,19.60
2019-01-25T16:17:55.388Z,22.17
2019-01-25T16:20:25.641Z,21.67
2019-01-25T16:22:54.814Z,21.97
2019-01-25T16:25:29.943Z,22.00
2019-01-25T16:27:59.151Z,22.40
2019-01-25T16:30:30.577Z,21.53
2019-01-25T16:32:59.736Z,22.00
2019-01-25T16:35:28.886Z,20.47
2019-01-25T16:37:58.122Z,19.97
2019-01-25T16:40:28.095Z,21.00
2019-01-25T16:42:57.321Z,20.77
2019-01-25T16:45:29.192Z,18.70
2019-01-25T16:47:58.389Z,19.67
2019-01-25T16:50:30.457Z,18.03
2019-01-25T16:52:59.779Z,19.17
2019-01-25T16:55:30.214Z,18.73
2019-01-25T16:57:59.578Z,19.03
2019-01-25T17:00:31.091Z,14.30
2019-01-25T17:03:00.299Z,14.40
2019-01-25T17:05:29.378Z,14.33
2019-01-25T17:07:58.520Z,13.87
2019-01-25T17:10:28.126Z,12.63
2019-01-25T17:12:58.126Z,12.23
2019-01-25T17:15:27.305Z,13.10
2019-01-25T17:18:11.085Z,12.90
2019-01-25T17:20:40.538Z,13.20
2019-01-25T17:23:09.905Z,13.73
2019-01-25T17:25:39.264Z,12.90
2019-01-25T17:28:09.839Z,12.00
2019-01-25T17:30:40.127Z,12.93
2019-01-25T17:33:09.189Z,13.40
2019-01-25T17:35:38.325Z,11.43
2019-01-25T17:38:23.828Z,14.17
2019-01-25T17:41:20.442Z,12.77
2019-01-25T17:43:54.987Z,12.40
2019-01-25T17:46:27.171Z,11.90
2019-01-25T17:48:56.985Z,12.83
2019-01-25T17:51:27.266Z,12.77
2019-01-25T17:53:56.739Z,10.43
2019-01-25T17:56:28.922Z,11.10
2019-01-25T17:58:59.300Z,11.53
2019-01-25T18:01:28.981Z,10.23
2019-01-25T18:03:58.310Z,9.93
2019-01-25T18:06:29.963Z,10.70
2019-01-25T18:09:05.074Z,10.90
2019-01-25T18:11:36.401Z,10.30
2019-01-25T18:14:05.827Z,9.43
2019-01-25T18:16:35.156Z,11.07
2019-01-25T18:19:06.985Z,10.53
2019-01-25T18:21:38.391Z,10.80
2019-01-25T18:24:07.826Z,10.80
2019-01-25T18:26:37.010Z,10.80
2019-01-25T18:29:13.633Z,10.23
2019-01-25T18:31:42.835Z,11.13
2019-01-25T18:34:11.914Z,9.93
2019-01-25T18:36:41.187Z,10.27
2019-01-25T18:39:10.316Z,10.33
2019-01-25T18:41:39.426Z,10.20
2019-01-25T18:44:08.607Z,9.97
2019-01-25T18:46:37.834Z,10.70
2019-01-25T18:49:06.934Z,11.80
2019-01-25T18:51:36.224Z,10.77
2019-01-25T18:54:05.445Z,9.97
2019-01-25T18:56:34.832Z,10.87
2019-01-25T18:59:04.056Z,8.60
2019-01-25T19:01:33.289Z,11.53
2019-01-25T19:04:02.558Z,10.53
2019-01-25T19:06:33.422Z,11.90
2019-01-25T19:09:02.730Z,9.97
2019-01-25T19:11:31.933Z,10.33
2019-01-25T19:14:01.035Z,10.17
2019-01-25T19:16:30.144Z,9.97
2019-01-25T19:18:59.235Z,9.20
2019-01-25T19:21:28.408Z,10.03
2019-01-25T19:24:06.098Z,10.93
2019-01-25T19:26:35.311Z,11.03
2019-01-25T19:29:05.699Z,11.50
2019-01-25T19:31:38.008Z,11.07
2019-01-25T19:34:07.191Z,11.00
2019-01-25T19:36:36.286Z,11.00
2019-01-25T19:39:10.373Z,12.53
2019-01-25T19:41:40.762Z,11.83
2019-01-25T19:44:10.006Z,11.33
2019-01-25T19:46:39.272Z,9.60
2019-01-25T19:49:08.643Z,9.53
2019-01-25T19:51:40.543Z,10.53
2019-01-25T19:54:09.734Z,10.17
2019-01-25T19:56:38.936Z,10.47
2019-01-25T19:59:08.341Z,11.30
2019-01-25T20:01:37.520Z,10.03
2019-01-25T20:04:07.024Z,9.10
2019-01-25T20:06:36.169Z,9.53
2019-01-25T20:09:09.230Z,9.50
2019-01-25T20:11:38.340Z,9.73
2019-01-25T20:14:07.482Z,9.43
2019-01-25T20:16:37.691Z,10.37
2019-01-25T20:19:06.759Z,7.80
2019-01-25T20:21:35.926Z,8.07
2019-01-25T20:24:05.019Z,9.17
2019-01-25T20:26:34.162Z,9.97
2019-01-25T20:29:03.198Z,8.93
2019-01-25T20:31:32.269Z,9.60
2019-01-25T20:34:01.343Z,8.67
2019-01-25T20:36:30.469Z,10.13
2019-01-25T20:38:59.527Z,9.27
2019-01-25T20:41:28.600Z,9.77
2019-01-25T20:43:57.741Z,8.53
2019-01-25T20:46:26.861Z,9.17
2019-01-25T20:48:55.951Z,8.80
2019-01-25T20:51:25.049Z,8.87
2019-01-25T20:53:54.144Z,9.20
2019-01-25T20:56:23.212Z,7.60
2019-01-25T20:58:52.332Z,9.43
2019-01-25T21:01:21.460Z,7.70
2019-01-25T21:03:50.561Z,9.43
2019-01-25T21:06:19.653Z,8.83
2019-01-25T21:08:48.744Z,8.27
2019-01-25T21:11:17.864Z,9.23
2019-01-25T21:13:46.934Z,8.90
2019-01-25T21:16:16.046Z,8.83
2019-01-25T21:18:45.118Z,9.07
2019-01-25T21:21:14.224Z,9.40
2019-01-25T21:23:43.297Z,10.30
2019-01-25T21:26:12.363Z,8.60
2019-01-25T21:28:41.406Z,9.27
2019-01-25T21:31:10.496Z,9.47
2019-01-25T21:33:39.627Z,8.67
2019-01-25T21:36:08.706Z,8.90
2019-01-25T21:38:37.789Z,9.37
2019-01-25T21:41:06.839Z,8.77
2019-01-25T21:43:35.899Z,8.07
2019-01-25T21:46:04.986Z,7.73
2019-01-25T21:48:34.109Z,6.60
2019-01-25T21:51:03.200Z,6.93
2019-01-25T21:53:32.275Z,7.10
2019-01-25T21:56:01.373Z,6.73
2019-01-25T21:58:30.468Z,6.13
2019-01-25T22:00:59.571Z,6.03
2019-01-25T22:03:28.721Z,5.90
2019-01-25T22:05:57.741Z,5.53
2019-01-25T22:08:26.911Z,5.23
2019-01-25T22:10:59.763Z,4.37
2019-01-25T22:13:30.457Z,5.43
2019-01-25T22:16:29.437Z,4.90
2019-01-25T22:18:58.595Z,5.43
2019-01-25T22:21:27.730Z,5.00
2019-01-25T22:23:56.851Z,5.00
2019-01-25T22:26:25.904Z,5.20
2019-01-25T22:28:55.121Z,4.80
2019-01-25T22:31:24.434Z,4.50
2019-01-25T22:33:53.639Z,5.13
2019-01-25T22:36:23.083Z,4.87
2019-01-25T22:38:52.399Z,4.90
2019-01-25T22:41:21.540Z,4.70
2019-01-25T22:43:50.706Z,4.40
2019-01-25T22:46:20.832Z,5.20
2019-01-25T22:48:49.978Z,5.17
2019-01-25T22:51:19.099Z,5.33
2019-01-25T22:53:48.191Z,5.40
2019-01-25T22:56:17.262Z,5.63
2019-01-25T22:58:46.438Z,5.60
2019-01-25T23:01:25.354Z,5.37
2019-01-25T23:04:50.475Z,5.50
2019-01-25T23:07:28.007Z,5.37
2019-01-25T23:09:59.735Z,6.13
2019-01-25T23:12:28.796Z,5.90
2019-01-25T23:14:57.918Z,5.33
2019-01-25T23:17:27.029Z,6.80
2019-01-25T23:19:56.168Z,6.47
2019-01-25T23:22:25.314Z,7.07
2019-01-25T23:24:54.361Z,7.30
2019-01-25T23:27:23.419Z,8.53
2019-01-25T23:29:52.572Z,8.63
2019-01-25T23:32:21.669Z,9.53
2019-01-25T23:34:50.755Z,9.90
2019-01-25T23:37:19.845Z,10.20
2019-01-25T23:39:48.946Z,9.73
2019-01-25T23:42:18.052Z,10.77
2019-01-25T23:44:47.137Z,11.50
2019-01-25T23:47:16.210Z,12.03
2019-01-25T23:49:45.313Z,13.30
2019-01-25T23:52:14.387Z,13.33
2019-01-25T23:54:43.532Z,15.40
2019-01-25T23:57:12.590Z,14.30
2019-01-25T23:59:41.779Z,15.53
